sensor_id;sensor_type;location;lat;lon;timestamp;pressure;altitude;pressure_sealevel;temperature;humidity
23616;BME280;11985;49.404;7.734;2023-04-28T00:04:53;97043.78;;;10.62;100.00
23616;BME280;11985;49.404;7.734;2023-04-28T00:09:55;97044.28;;;10.45;100.00
23616;BME280;11985;49.404;7.734;2023-04-28T00:14:57;97024.25;;;10.38;100.00
23616;BME280;11985;49.404;7.734;2023-04-28T00:19:59;97022.47;;;10.25;100.00
23616;BME280;11985;49.404;7.734;2023-04-28T00:25:01;97023.28;;;10.19;100.00
23616;BME280;11985;49.404;7.734;2023-04-28T00:30:05;97014.81;;;10.17;100.00
23616;BME280;11985;49.404;7.734;2023-04-28T00:35:08;97005.69;;;10.19;100.00
23616;BME280;11985;49.404;7.734;2023-04-28T00:40:10;96996.56;;;10.22;100.00
23616;BME280;11985;49.404;7.734;2023-04-28T00:45:12;96997.56;;;10.21;100.00
23616;BME280;11985;49.404;7.734;2023-04-28T00:50:15;96998.19;;;10.23;100.00
23616;BME280;11985;49.404;7.734;2023-04-28T00:55:18;96995.72;;;10.21;100.00
23616;BME280;11985;49.404;7.734;2023-04-28T01:00:19;96995.78;;;10.15;100.00
23616;BME280;11985;49.404;7.734;2023-04-28T01:05:24;96993.75;;;10.17;100.00
23616;BME280;11985;49.404;7.734;2023-04-28T01:10:26;97000.41;;;10.19;100.00
23616;BME280;11985;49.404;7.734;2023-04-28T01:15:27;96992.13;;;10.16;100.00
23616;BME280;11985;49.404;7.734;2023-04-28T01:20:31;96992.13;;;10.16;100.00
23616;BME280;11985;49.404;7.734;2023-04-28T01:25:34;96982.66;;;10.08;100.00
23616;BME280;11985;49.404;7.734;2023-04-28T01:30:36;96981.25;;;9.99;100.00
23616;BME280;11985;49.404;7.734;2023-04-28T01:35:37;96986.56;;;9.92;100.00
23616;BME280;11985;49.404;7.734;2023-04-28T01:40:40;96976.03;;;9.92;100.00
23616;BME280;11985;49.404;7.734;2023-04-28T01:45:43;96974.00;;;9.88;100.00
23616;BME280;11985;49.404;7.734;2023-04-28T01:50:44;96967.94;;;9.87;100.00
23616;BME280;11985;49.404;7.734;2023-04-28T01:55:47;96965.75;;;9.84;100.00
23616;BME280;11985;49.404;7.734;2023-04-28T02:00:49;96961.69;;;9.82;100.00
23616;BME280;11985;49.404;7.734;2023-04-28T02:05:51;96965.94;;;9.83;100.00
23616;BME280;11985;49.404;7.734;2023-04-28T02:10:54;96970.41;;;9.82;100.00
23616;BME280;11985;49.404;7.734;2023-04-28T02:15:59;96978.28;;;9.82;100.00
23616;BME280;11985;49.404;7.734;2023-04-28T02:21:07;96988.81;;;9.82;100.00
23616;BME280;11985;49.404;7.734;2023-04-28T02:26:10;96971.59;;;9.86;100.00
23616;BME280;11985;49.404;7.734;2023-04-28T02:31:12;96960.69;;;9.89;100.00
23616;BME280;11985;49.404;7.734;2023-04-28T02:36:14;96972.22;;;9.82;100.00
23616;BME280;11985;49.404;7.734;2023-04-28T02:41:17;96956.66;;;9.80;100.00
23616;BME280;11985;49.404;7.734;2023-04-28T02:46:18;96951.41;;;9.80;100.00
23616;BME280;11985;49.404;7.734;2023-04-28T02:51:20;96949.78;;;9.79;100.00
23616;BME280;11985;49.404;7.734;2023-04-28T02:56:23;96936.41;;;9.81;100.00
23616;BME280;11985;49.404;7.734;2023-04-28T03:01:24;96936.41;;;9.81;100.00
23616;BME280;11985;49.404;7.734;2023-04-28T03:06:26;96931.78;;;9.76;100.00
23616;BME280;11985;49.404;7.734;2023-04-28T03:11:29;96924.69;;;9.76;100.00
23616;BME280;11985;49.404;7.734;2023-04-28T03:16:31;96931.16;;;9.81;100.00
23616;BME280;11985;49.404;7.734;2023-04-28T03:21:33;96939.25;;;9.79;100.00
23616;BME280;11985;49.404;7.734;2023-04-28T03:26:37;96913.53;;;9.88;100.00
23616;BME280;11985;49.404;7.734;2023-04-28T03:31:38;96915.53;;;9.92;100.00
23616;BME280;11985;49.404;7.734;2023-04-28T03:36:42;96917.38;;;9.85;100.00
23616;BME280;11985;49.404;7.734;2023-04-28T03:41:45;96909.50;;;9.85;100.00
23616;BME280;11985;49.404;7.734;2023-04-28T03:46:46;96913.16;;;9.84;100.00
23616;BME280;11985;49.404;7.734;2023-04-28T03:51:48;96900.34;;;9.94;100.00
23616;BME280;11985;49.404;7.734;2023-04-28T03:56:52;96901.03;;;10.15;100.00
23616;BME280;11985;49.404;7.734;2023-04-28T04:01:53;96881.34;;;10.30;100.00
23616;BME280;11985;49.404;7.734;2023-04-28T04:06:55;96871.53;;;10.44;100.00
23616;BME280;11985;49.404;7.734;2023-04-28T04:11:58;96867.59;;;10.53;100.00
23616;BME280;11985;49.404;7.734;2023-04-28T04:17:00;96878.72;;;10.55;100.00
23616;BME280;11985;49.404;7.734;2023-04-28T04:22:01;96875.31;;;10.48;100.00
23616;BME280;11985;49.404;7.734;2023-04-28T04:27:04;96860.38;;;10.42;100.00
23616;BME280;11985;49.404;7.734;2023-04-28T04:32:06;96856.56;;;10.38;100.00
23616;BME280;11985;49.404;7.734;2023-04-28T04:37:08;96857.41;;;10.39;100.00
23616;BME280;11985;49.404;7.734;2023-04-28T04:42:11;96861.69;;;10.33;100.00
23616;BME280;11985;49.404;7.734;2023-04-28T04:47:12;96869.09;;;10.43;100.00
23616;BME280;11985;49.404;7.734;2023-04-28T04:52:14;96859.53;;;10.48;100.00
23616;BME280;11985;49.404;7.734;2023-04-28T04:57:17;96861.81;;;10.38;100.00
23616;BME280;11985;49.404;7.734;2023-04-28T05:02:19;96861.31;;;10.29;100.00
23616;BME280;11985;49.404;7.734;2023-04-28T05:07:20;96853.56;;;10.35;100.00
23616;BME280;11985;49.404;7.734;2023-04-28T05:12:23;96843.78;;;10.42;100.00
23616;BME280;11985;49.404;7.734;2023-04-28T05:17:25;96845.09;;;10.57;100.00
23616;BME280;11985;49.404;7.734;2023-04-28T05:22:26;96852.84;;;10.71;100.00
23616;BME280;11985;49.404;7.734;2023-04-28T05:27:31;96843.81;;;10.85;100.00
23616;BME280;11985;49.404;7.734;2023-04-28T05:32:33;96830.50;;;10.80;100.00
23616;BME280;11985;49.404;7.734;2023-04-28T05:37:35;96845.97;;;10.70;100.00
23616;BME280;11985;49.404;7.734;2023-04-28T05:42:39;96837.91;;;10.65;100.00
23616;BME280;11985;49.404;7.734;2023-04-28T05:47:43;96850.38;;;10.76;100.00
23616;BME280;11985;49.404;7.734;2023-04-28T05:52:45;96843.66;;;10.80;100.00
23616;BME280;11985;49.404;7.734;2023-04-28T05:57:48;96845.91;;;10.76;100.00
23616;BME280;11985;49.404;7.734;2023-04-28T06:02:50;96858.13;;;10.71;100.00
23616;BME280;11985;49.404;7.734;2023-04-28T06:07:52;96853.88;;;10.70;100.00
23616;BME280;11985;49.404;7.734;2023-04-28T06:12:56;96842.13;;;10.72;100.00
23616;BME280;11985;49.404;7.734;2023-04-28T06:17:58;96860.91;;;10.76;100.00
23616;BME280;11985;49.404;7.734;2023-04-28T06:22:59;96866.63;;;10.73;100.00
23616;BME280;11985;49.404;7.734;2023-04-28T06:28:04;96874.38;;;10.68;100.00
23616;BME280;11985;49.404;7.734;2023-04-28T06:33:06;96881.34;;;10.80;100.00
23616;BME280;11985;49.404;7.734;2023-04-28T06:38:08;96882.88;;;10.88;100.00
23616;BME280;11985;49.404;7.734;2023-04-28T06:43:11;96889.50;;;10.97;100.00
23616;BME280;11985;49.404;7.734;2023-04-28T06:48:13;96891.97;;;10.92;100.00
23616;BME280;11985;49.404;7.734;2023-04-28T06:53:15;96896.06;;;10.88;100.00
23616;BME280;11985;49.404;7.734;2023-04-28T06:58:18;96891.19;;;10.92;100.00
23616;BME280;11985;49.404;7.734;2023-04-28T07:03:20;96886.66;;;10.99;100.00
23616;BME280;11985;49.404;7.734;2023-04-28T07:08:22;96887.75;;;11.09;100.00
23616;BME280;11985;49.404;7.734;2023-04-28T07:13:25;96874.88;;;11.20;100.00
23616;BME280;11985;49.404;7.734;2023-04-28T07:18:26;96872.78;;;11.28;100.00
23616;BME280;11985;49.404;7.734;2023-04-28T07:23:28;96873.28;;;11.37;100.00
23616;BME280;11985;49.404;7.734;2023-04-28T07:28:31;96876.72;;;11.56;100.00
23616;BME280;11985;49.404;7.734;2023-04-28T07:33:34;96876.13;;;11.72;100.00
23616;BME280;11985;49.404;7.734;2023-04-28T07:38:35;96882.94;;;11.80;100.00
23616;BME280;11985;49.404;7.734;2023-04-28T07:43:39;96881.31;;;11.79;100.00
23616;BME280;11985;49.404;7.734;2023-04-28T07:48:41;96878.53;;;11.74;100.00
23616;BME280;11985;49.404;7.734;2023-04-28T07:53:43;96872.38;;;11.80;100.00
23616;BME280;11985;49.404;7.734;2023-04-28T07:58:46;96867.91;;;11.80;100.00
23616;BME280;11985;49.404;7.734;2023-04-28T08:03:47;96869.34;;;11.83;100.00
23616;BME280;11985;49.404;7.734;2023-04-28T08:08:49;96869.44;;;11.88;100.00
23616;BME280;11985;49.404;7.734;2023-04-28T08:13:52;96871.31;;;11.99;100.00
23616;BME280;11985;49.404;7.734;2023-04-28T08:18:54;96870.75;;;11.97;100.00
23616;BME280;11985;49.404;7.734;2023-04-28T08:23:56;96869.72;;;11.98;100.00
23616;BME280;11985;49.404;7.734;2023-04-28T08:28:59;96864.72;;;12.08;100.00
23616;BME280;11985;49.404;7.734;2023-04-28T08:34:01;96881.19;;;12.22;100.00
23616;BME280;11985;49.404;7.734;2023-04-28T08:39:02;96884.28;;;12.31;100.00
23616;BME280;11985;49.404;7.734;2023-04-28T08:44:09;96871.22;;;12.48;100.00
23616;BME280;11985;49.404;7.734;2023-04-28T08:49:13;96872.84;;;12.49;100.00
23616;BME280;11985;49.404;7.734;2023-04-28T08:54:16;96875.16;;;12.57;100.00
23616;BME280;11985;49.404;7.734;2023-04-28T08:59:20;96876.78;;;12.69;100.00
23616;BME280;11985;49.404;7.734;2023-04-28T09:04:22;96879.91;;;12.78;100.00
23616;BME280;11985;49.404;7.734;2023-04-28T09:09:25;96884.94;;;12.91;100.00
23616;BME280;11985;49.404;7.734;2023-04-28T09:14:30;96884.50;;;12.94;100.00
23616;BME280;11985;49.404;7.734;2023-04-28T09:19:34;96892.19;;;12.96;100.00
23616;BME280;11985;49.404;7.734;2023-04-28T09:24:37;96882.91;;;13.05;100.00
23616;BME280;11985;49.404;7.734;2023-04-28T09:29:51;96882.66;;;13.18;100.00
23616;BME280;11985;49.404;7.734;2023-04-28T09:34:53;96891.50;;;13.36;100.00
23616;BME280;11985;49.404;7.734;2023-04-28T09:40:01;96891.38;;;13.42;100.00
23616;BME280;11985;49.404;7.734;2023-04-28T09:45:06;96893.44;;;13.52;100.00
23616;BME280;11985;49.404;7.734;2023-04-28T09:50:09;96908.28;;;13.53;100.00
23616;BME280;11985;49.404;7.734;2023-04-28T09:55:13;96902.88;;;13.48;100.00
23616;BME280;11985;49.404;7.734;2023-04-28T10:00:17;96915.88;;;13.38;100.00
23616;BME280;11985;49.404;7.734;2023-04-28T10:05:20;96904.06;;;13.29;100.00
23616;BME280;11985;49.404;7.734;2023-04-28T10:10:24;96917.75;;;13.26;100.00
23616;BME280;11985;49.404;7.734;2023-04-28T10:15:28;96911.75;;;13.30;100.00
23616;BME280;11985;49.404;7.734;2023-04-28T10:20:30;96907.25;;;13.42;100.00
23616;BME280;11985;49.404;7.734;2023-04-28T10:25:35;96923.72;;;13.56;100.00
23616;BME280;11985;49.404;7.734;2023-04-28T10:30:39;96910.91;;;13.65;100.00
23616;BME280;11985;49.404;7.734;2023-04-28T10:35:42;96907.66;;;13.74;100.00
23616;BME280;11985;49.404;7.734;2023-04-28T10:40:45;96898.31;;;13.84;100.00
23616;BME280;11985;49.404;7.734;2023-04-28T10:46:05;96907.88;;;13.85;100.00
23616;BME280;11985;49.404;7.734;2023-04-28T10:56:41;96906.94;;;13.91;100.00
23616;BME280;11985;49.404;7.734;2023-04-28T11:02:35;96898.69;;;14.04;100.00
23616;BME280;11985;49.404;7.734;2023-04-28T11:07:38;96901.31;;;14.16;100.00
23616;BME280;11985;49.404;7.734;2023-04-28T11:18:19;96888.56;;;14.58;100.00
23616;BME280;11985;49.404;7.734;2023-04-28T11:23:25;96882.13;;;14.54;100.00
23616;BME280;11985;49.404;7.734;2023-04-28T11:28:28;96898.22;;;14.36;100.00
23616;BME280;11985;49.404;7.734;2023-04-28T11:33:32;96889.94;;;14.32;100.00
23616;BME280;11985;49.404;7.734;2023-04-28T11:38:42;96894.16;;;14.45;100.00
23616;BME280;11985;49.404;7.734;2023-04-28T11:43:44;96889.88;;;14.72;100.00
23616;BME280;11985;49.404;7.734;2023-04-28T11:48:47;96897.41;;;14.81;100.00
23616;BME280;11985;49.404;7.734;2023-04-28T11:53:49;96904.31;;;14.82;100.00
23616;BME280;11985;49.404;7.734;2023-04-28T11:59:02;96902.06;;;14.73;100.00
23616;BME280;11985;49.404;7.734;2023-04-28T12:04:05;96900.75;;;14.93;100.00
23616;BME280;11985;49.404;7.734;2023-04-28T12:09:17;96908.94;;;15.25;100.00
23616;BME280;11985;49.404;7.734;2023-04-28T12:14:20;96898.47;;;15.35;100.00
23616;BME280;11985;49.404;7.734;2023-04-28T12:19:23;96897.31;;;15.48;100.00
23616;BME280;11985;49.404;7.734;2023-04-28T12:24:25;96898.44;;;15.52;100.00
23616;BME280;11985;49.404;7.734;2023-04-28T12:29:37;96903.22;;;15.94;100.00
23616;BME280;11985;49.404;7.734;2023-04-28T12:34:41;96900.78;;;16.14;100.00
23616;BME280;11985;49.404;7.734;2023-04-28T12:39:43;96898.13;;;15.92;100.00
23616;BME280;11985;49.404;7.734;2023-04-28T12:44:44;96895.28;;;15.72;100.00
23616;BME280;11985;49.404;7.734;2023-04-28T12:49:48;96899.66;;;15.83;100.00
23616;BME280;11985;49.404;7.734;2023-04-28T12:54:52;96889.53;;;16.61;100.00
23616;BME280;11985;49.404;7.734;2023-04-28T12:59:53;96886.91;;;17.35;100.00
23616;BME280;11985;49.404;7.734;2023-04-28T13:04:57;96873.63;;;17.46;100.00
23616;BME280;11985;49.404;7.734;2023-04-28T13:09:59;96868.50;;;17.86;100.00
23616;BME280;11985;49.404;7.734;2023-04-28T13:15:01;96865.41;;;18.25;100.00
23616;BME280;11985;49.404;7.734;2023-04-28T13:20:08;96863.28;;;18.22;100.00
23616;BME280;11985;49.404;7.734;2023-04-28T13:25:10;96845.47;;;17.65;100.00
23616;BME280;11985;49.404;7.734;2023-04-28T13:30:12;96848.09;;;17.50;100.00
23616;BME280;11985;49.404;7.734;2023-04-28T13:35:15;96849.59;;;17.30;100.00
23616;BME280;11985;49.404;7.734;2023-04-28T13:40:17;96844.34;;;16.98;100.00
23616;BME280;11985;49.404;7.734;2023-04-28T13:45:19;96840.97;;;16.71;100.00
23616;BME280;11985;49.404;7.734;2023-04-28T13:50:22;96849.13;;;16.32;100.00
23616;BME280;11985;49.404;7.734;2023-04-28T13:55:23;96841.03;;;16.17;100.00
23616;BME280;11985;49.404;7.734;2023-04-28T14:00:27;96852.66;;;16.10;100.00
23616;BME280;11985;49.404;7.734;2023-04-28T14:05:30;96840.78;;;16.18;100.00
23616;BME280;11985;49.404;7.734;2023-04-28T14:10:32;96830.66;;;16.47;100.00
23616;BME280;11985;49.404;7.734;2023-04-28T14:15:33;96837.38;;;16.55;100.00
23616;BME280;11985;49.404;7.734;2023-04-28T14:20:36;96842.34;;;16.46;100.00
23616;BME280;11985;49.404;7.734;2023-04-28T14:25:38;96841.50;;;16.41;100.00
23616;BME280;11985;49.404;7.734;2023-04-28T14:30:40;96842.84;;;16.38;100.00
23616;BME280;11985;49.404;7.734;2023-04-28T14:35:43;96847.69;;;16.19;100.00
23616;BME280;11985;49.404;7.734;2023-04-28T14:40:45;96853.38;;;16.01;100.00
23616;BME280;11985;49.404;7.734;2023-04-28T14:45:46;96854.72;;;15.81;100.00
23616;BME280;11985;49.404;7.734;2023-04-28T14:50:51;96846.94;;;15.53;100.00
23616;BME280;11985;49.404;7.734;2023-04-28T14:55:52;96840.56;;;15.32;100.00
23616;BME280;11985;49.404;7.734;2023-04-28T15:00:54;96836.44;;;15.19;100.00
23616;BME280;11985;49.404;7.734;2023-04-28T15:05:57;96838.25;;;15.36;100.00
23616;BME280;11985;49.404;7.734;2023-04-28T15:10:59;96839.44;;;15.89;100.00
23616;BME280;11985;49.404;7.734;2023-04-28T15:16:01;96840.03;;;15.96;100.00
23616;BME280;11985;49.404;7.734;2023-04-28T15:21:04;96833.13;;;15.95;100.00
23616;BME280;11985;49.404;7.734;2023-04-28T15:26:06;96830.81;;;16.68;100.00
23616;BME280;11985;49.404;7.734;2023-04-28T15:31:10;96827.59;;;17.45;100.00
23616;BME280;11985;49.404;7.734;2023-04-28T15:36:13;96821.53;;;17.70;100.00
23616;BME280;11985;49.404;7.734;2023-04-28T15:41:15;96818.75;;;18.12;100.00
23616;BME280;11985;49.404;7.734;2023-04-28T15:46:16;96814.75;;;18.30;100.00
23616;BME280;11985;49.404;7.734;2023-04-28T15:51:19;96817.16;;;18.42;100.00
23616;BME280;11985;49.404;7.734;2023-04-28T15:56:21;96817.94;;;18.37;100.00
23616;BME280;11985;49.404;7.734;2023-04-28T16:01:23;96813.69;;;18.52;100.00
23616;BME280;11985;49.404;7.734;2023-04-28T16:06:26;96815.84;;;18.85;100.00
23616;BME280;11985;49.404;7.734;2023-04-28T16:11:29;96816.88;;;18.99;100.00
23616;BME280;11985;49.404;7.734;2023-04-28T16:16:31;96817.13;;;19.03;100.00
23616;BME280;11985;49.404;7.734;2023-04-28T16:21:34;96819.56;;;18.99;100.00
23616;BME280;11985;49.404;7.734;2023-04-28T16:26:35;96813.13;;;19.11;100.00
23616;BME280;11985;49.404;7.734;2023-04-28T16:31:37;96811.91;;;19.47;100.00
23616;BME280;11985;49.404;7.734;2023-04-28T16:36:40;96803.38;;;19.45;98.97
23616;BME280;11985;49.404;7.734;2023-04-28T16:41:41;96807.31;;;20.13;96.33
23616;BME280;11985;49.404;7.734;2023-04-28T16:46:43;96804.09;;;20.55;91.19
23616;BME280;11985;49.404;7.734;2023-04-28T16:51:55;96811.47;;;20.97;88.37
23616;BME280;11985;49.404;7.734;2023-04-28T16:56:58;96819.41;;;21.07;84.86
23616;BME280;11985;49.404;7.734;2023-04-28T17:02:00;96827.47;;;21.02;81.78
23616;BME280;11985;49.404;7.734;2023-04-28T17:07:04;96808.06;;;21.16;80.95
23616;BME280;11985;49.404;7.734;2023-04-28T17:12:06;96816.22;;;21.53;76.24
23616;BME280;11985;49.404;7.734;2023-04-28T17:17:08;96832.97;;;21.64;75.43
23616;BME280;11985;49.404;7.734;2023-04-28T17:22:11;96821.63;;;21.00;76.03
23616;BME280;11985;49.404;7.734;2023-04-28T17:27:13;96812.75;;;20.02;77.63
23616;BME280;11985;49.404;7.734;2023-04-28T17:32:15;96819.03;;;18.67;83.73
23616;BME280;11985;49.404;7.734;2023-04-28T17:37:18;96818.69;;;17.77;90.76
23616;BME280;11985;49.404;7.734;2023-04-28T17:42:20;96813.97;;;17.41;95.10
23616;BME280;11985;49.404;7.734;2023-04-28T17:47:21;96822.91;;;17.15;97.79
23616;BME280;11985;49.404;7.734;2023-04-28T17:52:24;96827.13;;;17.06;100.00
23616;BME280;11985;49.404;7.734;2023-04-28T17:57:26;96821.22;;;16.99;100.00
23616;BME280;11985;49.404;7.734;2023-04-28T18:02:28;96826.75;;;16.92;100.00
23616;BME280;11985;49.404;7.734;2023-04-28T18:07:32;96825.25;;;16.69;100.00
23616;BME280;11985;49.404;7.734;2023-04-28T18:12:33;96828.34;;;16.56;100.00
23616;BME280;11985;49.404;7.734;2023-04-28T18:17:35;96838.34;;;16.44;100.00
23616;BME280;11985;49.404;7.734;2023-04-28T18:22:38;96848.50;;;16.20;100.00
23616;BME280;11985;49.404;7.734;2023-04-28T18:27:40;96849.66;;;16.02;100.00
23616;BME280;11985;49.404;7.734;2023-04-28T18:32:42;96844.97;;;15.87;100.00
23616;BME280;11985;49.404;7.734;2023-04-28T18:37:45;96853.81;;;15.71;100.00
23616;BME280;11985;49.404;7.734;2023-04-28T18:42:46;96856.03;;;15.57;100.00
23616;BME280;11985;49.404;7.734;2023-04-28T18:47:48;96851.63;;;15.46;100.00
23616;BME280;11985;49.404;7.734;2023-04-28T18:52:51;96861.06;;;15.37;100.00
23616;BME280;11985;49.404;7.734;2023-04-28T18:57:54;96877.44;;;15.28;100.00
23616;BME280;11985;49.404;7.734;2023-04-28T19:02:55;96875.50;;;15.24;100.00
23616;BME280;11985;49.404;7.734;2023-04-28T19:07:58;96888.75;;;15.24;100.00
23616;BME280;11985;49.404;7.734;2023-04-28T19:13:00;96896.25;;;15.27;100.00
23616;BME280;11985;49.404;7.734;2023-04-28T19:18:03;96902.56;;;15.26;100.00
23616;BME280;11985;49.404;7.734;2023-04-28T19:23:06;96905.91;;;15.16;100.00
23616;BME280;11985;49.404;7.734;2023-04-28T19:28:07;96913.38;;;15.02;100.00
23616;BME280;11985;49.404;7.734;2023-04-28T19:33:10;96914.69;;;15.00;100.00
23616;BME280;11985;49.404;7.734;2023-04-28T19:38:13;96917.81;;;14.97;100.00
23616;BME280;11985;49.404;7.734;2023-04-28T19:43:16;96929.47;;;14.96;100.00
23616;BME280;11985;49.404;7.734;2023-04-28T19:48:17;96935.31;;;14.81;100.00
23616;BME280;11985;49.404;7.734;2023-04-28T19:53:21;96943.19;;;14.76;100.00
23616;BME280;11985;49.404;7.734;2023-04-28T19:58:23;96941.28;;;14.71;100.00
23616;BME280;11985;49.404;7.734;2023-04-28T20:03:24;96945.44;;;14.67;100.00
23616;BME280;11985;49.404;7.734;2023-04-28T20:08:27;96941.41;;;14.65;100.00
23616;BME280;11985;49.404;7.734;2023-04-28T20:13:29;96951.69;;;14.61;100.00
23616;BME280;11985;49.404;7.734;2023-04-28T20:18:30;96945.41;;;14.50;100.00
23616;BME280;11985;49.404;7.734;2023-04-28T20:23:33;96949.69;;;14.40;100.00
23616;BME280;11985;49.404;7.734;2023-04-28T20:28:35;96950.84;;;14.44;100.00
23616;BME280;11985;49.404;7.734;2023-04-28T20:33:37;96952.91;;;14.42;100.00
23616;BME280;11985;49.404;7.734;2023-04-28T20:38:40;96953.06;;;14.35;100.00
23616;BME280;11985;49.404;7.734;2023-04-28T20:43:42;96958.97;;;14.25;100.00
23616;BME280;11985;49.404;7.734;2023-04-28T20:48:45;96949.91;;;14.10;100.00
23616;BME280;11985;49.404;7.734;2023-04-28T20:53:47;96954.56;;;13.91;100.00
23616;BME280;11985;49.404;7.734;2023-04-28T20:58:50;96966.44;;;13.77;100.00
23616;BME280;11985;49.404;7.734;2023-04-28T21:03:51;96955.31;;;13.63;100.00
23616;BME280;11985;49.404;7.734;2023-04-28T21:08:54;96961.19;;;13.53;100.00
23616;BME280;11985;49.404;7.734;2023-04-28T21:13:56;96959.94;;;13.56;100.00
23616;BME280;11985;49.404;7.734;2023-04-28T21:18:57;96961.66;;;13.62;100.00
23616;BME280;11985;49.404;7.734;2023-04-28T21:24:01;96970.41;;;13.62;100.00
23616;BME280;11985;49.404;7.734;2023-04-28T21:29:03;96963.94;;;13.58;100.00
23616;BME280;11985;49.404;7.734;2023-04-28T21:34:04;96963.72;;;13.48;100.00
23616;BME280;11985;49.404;7.734;2023-04-28T21:39:08;96972.47;;;13.37;100.00
23616;BME280;11985;49.404;7.734;2023-04-28T21:44:10;96972.00;;;13.16;100.00
23616;BME280;11985;49.404;7.734;2023-04-28T21:49:12;96973.47;;;12.89;100.00
23616;BME280;11985;49.404;7.734;2023-04-28T21:54:15;96974.06;;;12.61;100.00
23616;BME280;11985;49.404;7.734;2023-04-28T21:59:17;96974.53;;;12.28;100.00
23616;BME280;11985;49.404;7.734;2023-04-28T22:04:19;96971.75;;;12.04;100.00
23616;BME280;11985;49.404;7.734;2023-04-28T22:09:22;96970.19;;;11.85;100.00
23616;BME280;11985;49.404;7.734;2023-04-28T22:14:24;96973.06;;;11.77;100.00
23616;BME280;11985;49.404;7.734;2023-04-28T22:19:25;96983.19;;;11.61;100.00
23616;BME280;11985;49.404;7.734;2023-04-28T22:24:28;96982.31;;;11.49;100.00
23616;BME280;11985;49.404;7.734;2023-04-28T22:29:30;96993.34;;;11.40;100.00
23616;BME280;11985;49.404;7.734;2023-04-28T22:34:31;96992.28;;;11.22;100.00
23616;BME280;11985;49.404;7.734;2023-04-28T22:39:34;96992.78;;;11.13;100.00
23616;BME280;11985;49.404;7.734;2023-04-28T22:44:36;96993.47;;;11.01;100.00
23616;BME280;11985;49.404;7.734;2023-04-28T22:49:38;96995.75;;;10.91;100.00
23616;BME280;11985;49.404;7.734;2023-04-28T22:54:41;96997.88;;;10.76;100.00
23616;BME280;11985;49.404;7.734;2023-04-28T22:59:43;96996.78;;;10.58;100.00
23616;BME280;11985;49.404;7.734;2023-04-28T23:04:44;96994.28;;;10.39;100.00
23616;BME280;11985;49.404;7.734;2023-04-28T23:09:47;96996.16;;;10.25;100.00
23616;BME280;11985;49.404;7.734;2023-04-28T23:14:49;96995.59;;;10.16;100.00
23616;BME280;11985;49.404;7.734;2023-04-28T23:19:50;96996.59;;;10.09;100.00
23616;BME280;11985;49.404;7.734;2023-04-28T23:24:53;96993.78;;;10.03;100.00
23616;BME280;11985;49.404;7.734;2023-04-28T23:29:55;97007.97;;;10.02;100.00
23616;BME280;11985;49.404;7.734;2023-04-28T23:34:57;97010.84;;;9.94;100.00
23616;BME280;11985;49.404;7.734;2023-04-28T23:40:00;97011.66;;;9.88;100.00
23616;BME280;11985;49.404;7.734;2023-04-28T23:45:03;97014.13;;;9.83;100.00
23616;BME280;11985;49.404;7.734;2023-04-28T23:50:06;97009.91;;;9.69;100.00
23616;BME280;11985;49.404;7.734;2023-04-28T23:55:10;96998.78;;;9.60;100.00
